Time;durP1;ratioP1;P1;durP2;ratioP2;P2;SDS_P1;SDS_P2;PMS_P1;PMS_P2;Temp;Humidity;BMP_temperature;BMP_pressure;BME280_temperature;BME280_humidity;BME280_pressure;Samples;Min_cycle;Max_cycle;Signal;HPM_P1;HPM_P2
2023/01/25 00:00:13;;;;;;;57.13;23.70;;;0.40;99.90;;;;;;493975;241;27580;-73
2023/01/25 00:02:15;;;;;;;58.05;23.20;;;0.40;99.90;;;;;;494008;241;27526;-73
2023/01/25 00:04:16;;;;;;;66.95;25.40;;;0.40;99.90;;;;;;493999;241;27469;-73
2023/01/25 00:06:17;;;;;;;49.97;22.05;;;0.40;99.90;;;;;;494008;241;27497;-73
2023/01/25 00:08:20;;;;;;;61.33;25.40;;;0.40;99.90;;;;;;493994;241;28822;-72
2023/01/25 00:10:20;;;;;;;69.30;24.90;;;0.40;99.90;;;;;;493919;241;27928;-73
2023/01/25 00:12:21;;;;;;;45.95;21.00;;;0.40;99.90;;;;;;493990;241;27510;-73
2023/01/25 00:14:22;;;;;;;74.75;26.20;;;0.40;99.90;;;;;;493971;241;27467;-73
2023/01/25 00:16:23;;;;;;;87.53;26.50;;;0.40;99.90;;;;;;493982;241;27498;-73
2023/01/25 00:18:25;;;;;;;79.90;25.37;;;0.30;99.90;;;;;;494006;241;27522;-73
2023/01/25 00:20:26;;;;;;;94.47;27.75;;;0.30;99.90;;;;;;493999;241;27460;-73
2023/01/25 00:22:27;;;;;;;62.33;24.42;;;0.30;99.90;;;;;;493931;237;27973;-73
2023/01/25 00:24:28;;;;;;;41.20;20.52;;;0.30;99.90;;;;;;493994;241;27973;-73
2023/01/25 00:26:30;;;;;;;216.05;35.05;;;0.30;99.90;;;;;;493978;241;27510;-73
2023/01/25 00:28:31;;;;;;;72.87;25.35;;;0.20;99.90;;;;;;493983;241;27517;-73
2023/01/25 00:38:08;;;;;;;62.67;22.60;;;0.30;99.90;;;;;;494052;241;27533;-73
2023/01/25 00:40:09;;;;;;;87.80;25.10;;;0.20;99.90;;;;;;494013;241;27571;-73
2023/01/25 00:42:10;;;;;;;71.32;24.10;;;0.20;99.90;;;;;;494000;241;27994;-73
2023/01/25 00:44:11;;;;;;;61.88;22.75;;;0.30;99.90;;;;;;493813;241;29090;-73
2023/01/25 00:46:13;;;;;;;45.60;21.40;;;0.30;99.90;;;;;;494004;241;27477;-73
2023/01/25 00:48:14;;;;;;;80.57;25.88;;;0.40;99.90;;;;;;493932;241;27595;-72
2023/01/25 00:50:15;;;;;;;60.53;24.30;;;0.30;99.90;;;;;;494015;241;27532;-73
2023/01/25 00:52:17;;;;;;;49.90;22.37;;;0.30;99.90;;;;;;494020;241;27502;-73
2023/01/25 00:54:18;;;;;;;58.92;24.75;;;0.30;99.90;;;;;;494009;241;27843;-73
2023/01/25 00:56:19;;;;;;;63.87;23.87;;;0.30;99.90;;;;;;494025;241;27468;-73
2023/01/25 00:58:20;;;;;;;55.92;23.62;;;0.40;99.90;;;;;;494023;241;27972;-72
2023/01/25 01:00:22;;;;;;;62.95;24.50;;;0.30;99.90;;;;;;494031;241;27919;-73
2023/01/25 01:02:23;;;;;;;61.33;22.75;;;0.30;99.90;;;;;;493984;241;27578;-73
2023/01/25 01:04:24;;;;;;;40.85;20.02;;;0.30;99.90;;;;;;493987;241;27603;-73
2023/01/25 01:06:25;;;;;;;32.72;18.50;;;0.40;99.90;;;;;;494022;241;27455;-73
2023/01/25 01:08:27;;;;;;;62.70;25.73;;;0.50;99.90;;;;;;493986;241;27509;-73
2023/01/25 01:21:21;;;;;;;52.35;22.73;;;0.30;99.90;;;;;;494027;241;27389;-73
2023/01/25 01:23:23;;;;;;;37.92;19.77;;;0.30;99.90;;;;;;493993;241;27606;-73
2023/01/25 01:25:24;;;;;;;55.83;23.60;;;0.20;99.90;;;;;;494023;241;27482;-73
2023/01/25 01:27:25;;;;;;;50.55;21.87;;;0.30;99.90;;;;;;493969;241;27635;-73
2023/01/25 01:29:26;;;;;;;66.05;25.77;;;0.30;99.90;;;;;;493979;241;27917;-73
2023/01/25 01:31:28;;;;;;;46.53;23.02;;;0.20;99.90;;;;;;493988;241;29073;-73
2023/01/25 01:33:29;;;;;;;33.05;18.10;;;0.20;99.90;;;;;;494046;241;27532;-73
2023/01/25 01:35:30;;;;;;;47.13;21.50;;;0.30;99.90;;;;;;494015;241;27455;-73
2023/01/25 01:37:31;;;;;;;47.38;21.55;;;0.30;99.90;;;;;;494029;241;27506;-73
2023/01/25 01:39:33;;;;;;;53.47;22.92;;;0.30;99.90;;;;;;494009;241;27472;-73
2023/01/25 01:41:34;;;;;;;52.53;22.42;;;0.30;99.90;;;;;;494002;241;27502;-73
2023/01/25 01:43:35;;;;;;;49.03;21.45;;;0.30;99.90;;;;;;493964;241;28063;-73
2023/01/25 01:45:36;;;;;;;32.70;19.02;;;0.30;99.90;;;;;;493997;237;27949;-73
2023/01/25 01:47:38;;;;;;;36.75;19.17;;;0.30;99.90;;;;;;494010;241;28004;-73
2023/01/25 01:49:39;;;;;;;52.78;22.48;;;0.30;99.90;;;;;;494002;241;27557;-73
2023/01/25 01:51:41;;;;;;;61.50;22.55;;;0.20;99.90;;;;;;494030;241;27517;-73
2023/01/25 01:53:41;;;;;;;71.12;24.12;;;0.20;99.90;;;;;;494033;241;27599;-73
2023/01/25 01:55:43;;;;;;;58.33;23.25;;;0.20;99.90;;;;;;494004;241;27500;-73
2023/01/25 01:57:44;;;;;;;61.75;24.50;;;0.10;99.90;;;;;;494012;241;27513;-73
2023/01/25 01:59:45;;;;;;;68.12;24.02;;;0.20;99.90;;;;;;494036;241;27888;-73
2023/01/25 02:01:47;;;;;;;73.03;24.67;;;0.20;99.90;;;;;;494031;241;28071;-73
2023/01/25 02:03:48;;;;;;;68.55;26.08;;;0.10;99.90;;;;;;494047;241;27516;-73
2023/01/25 02:05:49;;;;;;;70.62;25.15;;;0.10;99.90;;;;;;494052;241;27592;-72
2023/01/25 02:07:50;;;;;;;77.10;25.85;;;0.10;99.90;;;;;;494051;241;27514;-73
2023/01/25 02:09:52;;;;;;;70.00;25.75;;;0.10;99.90;;;;;;494048;241;27520;-73
2023/01/25 02:11:53;;;;;;;98.70;28.17;;;0.20;99.90;;;;;;494031;241;27526;-73
2023/01/25 02:13:54;;;;;;;89.85;26.42;;;0.10;99.90;;;;;;494027;241;27488;-73
2023/01/25 02:15:55;;;;;;;51.25;22.42;;;0.10;99.90;;;;;;494000;241;28005;-73
2023/01/25 02:17:57;;;;;;;112.85;26.73;;;0.10;99.90;;;;;;494019;241;27993;-73
2023/01/25 02:19:58;;;;;;;85.03;27.08;;;0.10;99.90;;;;;;493807;241;27500;-72
2023/01/25 02:21:59;;;;;;;80.97;26.42;;;0.20;99.90;;;;;;493980;241;27510;-73
2023/01/25 02:24:00;;;;;;;76.28;27.37;;;0.10;99.90;;;;;;493969;241;27912;-73
2023/01/25 02:26:02;;;;;;;133.93;29.90;;;0.10;99.90;;;;;;494008;241;27619;-73
2023/01/25 02:28:03;;;;;;;63.75;24.63;;;0.10;99.90;;;;;;494023;237;27506;-73
2023/01/25 02:30:04;;;;;;;73.50;26.85;;;0.20;99.90;;;;;;493993;241;27913;-73
2023/01/25 02:32:05;;;;;;;43.63;20.62;;;0.20;99.90;;;;;;493976;241;29082;-73
2023/01/25 02:34:07;;;;;;;48.63;22.67;;;0.20;99.90;;;;;;493939;241;27510;-72
2023/01/25 02:36:08;;;;;;;56.95;23.52;;;0.30;99.90;;;;;;494019;241;27616;-73
2023/01/25 02:38:09;;;;;;;46.70;22.58;;;0.20;99.90;;;;;;494003;241;27624;-73
2023/01/25 02:40:10;;;;;;;48.58;23.40;;;0.30;99.90;;;;;;493972;241;27481;-73
2023/01/25 02:42:12;;;;;;;62.47;24.33;;;0.30;99.90;;;;;;493988;241;27521;-73
2023/01/25 02:44:13;;;;;;;55.75;22.90;;;0.30;99.90;;;;;;494026;241;27532;-73
2023/01/25 02:46:14;;;;;;;62.05;25.05;;;0.30;99.90;;;;;;494004;241;27938;-73
2023/01/25 02:48:15;;;;;;;49.70;22.73;;;0.20;99.90;;;;;;494017;241;28075;-73
2023/01/25 02:50:17;;;;;;;48.28;21.75;;;0.30;99.90;;;;;;493988;241;27469;-73
2023/01/25 02:52:18;;;;;;;71.32;23.83;;;0.30;99.90;;;;;;493996;241;27514;-73
2023/01/25 02:54:19;;;;;;;66.47;25.30;;;0.20;99.90;;;;;;493971;241;27493;-73
2023/01/25 02:56:20;;;;;;;55.30;23.75;;;0.20;99.90;;;;;;493983;241;27479;-73
2023/01/25 02:58:22;;;;;;;46.97;21.25;;;0.20;99.90;;;;;;493987;241;27514;-73
2023/01/25 03:00:23;;;;;;;65.95;25.25;;;0.30;99.90;;;;;;494000;241;27456;-73
2023/01/25 03:02:24;;;;;;;48.97;22.75;;;0.20;99.90;;;;;;493989;237;27923;-73
2023/01/25 03:04:25;;;;;;;75.55;25.23;;;0.30;99.90;;;;;;494026;241;27967;-73
2023/01/25 03:06:27;;;;;;;81.30;25.70;;;0.20;99.90;;;;;;494012;241;27453;-73
2023/01/25 03:08:28;;;;;;;66.78;25.25;;;0.20;99.90;;;;;;493992;241;27522;-73
2023/01/25 03:10:29;;;;;;;59.10;23.50;;;0.10;99.90;;;;;;493988;241;27500;-73
2023/01/25 03:12:31;;;;;;;72.72;27.08;;;0.20;99.90;;;;;;493948;241;27463;-73
2023/01/25 03:14:32;;;;;;;53.40;24.35;;;0.20;99.90;;;;;;493998;241;27580;-73
2023/01/25 03:16:33;;;;;;;84.68;27.13;;;0.10;99.90;;;;;;493963;241;27907;-73
2023/01/25 03:18:34;;;;;;;74.45;25.55;;;0.10;99.90;;;;;;493919;241;28012;-73
2023/01/25 03:20:36;;;;;;;50.22;22.35;;;0.20;99.90;;;;;;493889;241;27942;-73
2023/01/25 03:22:37;;;;;;;79.05;27.02;;;0.20;99.90;;;;;;493958;241;27557;-72
2023/01/25 03:24:38;;;;;;;75.00;27.13;;;0.20;99.90;;;;;;493796;241;27597;-73
2023/01/25 03:28:59;;;;;;;62.20;24.87;;;0.30;99.90;;;;;;493945;241;27523;-72
2023/01/25 03:31:00;;;;;;;67.85;25.08;;;0.20;99.90;;;;;;493975;241;28089;-73
2023/01/25 03:33:01;;;;;;;83.53;26.90;;;0.30;99.90;;;;;;494004;241;28011;-73
2023/01/25 03:35:02;;;;;;;48.10;21.35;;;0.20;99.90;;;;;;493999;241;27501;-73
2023/01/25 03:37:04;;;;;;;100.30;28.45;;;0.20;99.90;;;;;;494005;241;27470;-73
2023/01/25 03:39:05;;;;;;;56.00;26.75;;;0.20;99.90;;;;;;494017;237;27506;-73
2023/01/25 03:41:06;;;;;;;86.87;30.50;;;0.20;99.90;;;;;;494033;241;27493;-73
2023/01/25 03:43:08;;;;;;;79.43;26.00;;;0.20;99.90;;;;;;493971;239;27473;-73
2023/01/25 03:45:09;;;;;;;98.00;28.10;;;0.20;99.90;;;;;;494009;241;28427;-73
2023/01/25 03:47:10;;;;;;;69.95;25.90;;;0.20;99.90;;;;;;494003;241;27940;-73
2023/01/25 03:49:11;;;;;;;67.20;25.58;;;0.20;99.90;;;;;;493967;241;27510;-73
2023/01/25 03:51:13;;;;;;;82.95;29.35;;;0.20;99.90;;;;;;494015;241;27514;-73
2023/01/25 03:53:26;;;;;;;81.55;27.05;;;0.20;99.90;;;;;;493940;241;27462;-72
2023/01/25 03:55:15;;;;;;;70.72;26.17;;;0.10;99.90;;;;;;492999;241;27501;-73
2023/01/25 03:57:16;;;;;;;69.40;26.50;;;0.10;99.90;;;;;;494012;241;27482;-73
2023/01/25 03:59:18;;;;;;;59.92;24.73;;;0.20;99.90;;;;;;494017;241;27496;-73
2023/01/25 04:01:19;;;;;;;70.87;25.40;;;0.20;99.90;;;;;;493995;241;28193;-73
2023/01/25 04:03:20;;;;;;;76.82;27.98;;;0.20;99.90;;;;;;494010;241;27946;-73
2023/01/25 04:05:21;;;;;;;96.43;27.85;;;0.20;99.90;;;;;;493986;241;27513;-73
2023/01/25 04:07:23;;;;;;;93.97;28.87;;;0.20;99.90;;;;;;493990;241;27587;-73
2023/01/25 04:09:24;;;;;;;93.47;27.58;;;0.10;99.90;;;;;;493989;241;27596;-73
2023/01/25 04:11:25;;;;;;;75.25;28.00;;;0.10;99.90;;;;;;493975;241;27473;-73
2023/01/25 04:13:26;;;;;;;82.28;27.52;;;0.10;99.90;;;;;;494022;241;27464;-73
2023/01/25 04:15:28;;;;;;;66.68;25.83;;;0.20;99.90;;;;;;493994;241;27509;-73
2023/01/25 04:17:29;;;;;;;96.50;28.05;;;0.20;99.90;;;;;;494000;241;27996;-73
2023/01/25 04:19:30;;;;;;;78.87;25.83;;;0.20;99.90;;;;;;494000;241;28697;-73
2023/01/25 04:21:31;;;;;;;70.55;25.35;;;0.20;99.90;;;;;;493980;241;27577;-73
2023/01/25 04:23:33;;;;;;;62.80;26.80;;;0.20;99.90;;;;;;493984;241;27468;-73
2023/01/25 04:25:34;;;;;;;84.47;27.15;;;0.20;99.90;;;;;;494011;241;27502;-72
2023/01/25 04:27:35;;;;;;;79.32;25.30;;;0.20;99.90;;;;;;493997;241;27559;-73
2023/01/25 04:29:36;;;;;;;47.58;22.98;;;0.10;99.90;;;;;;493968;241;27623;-73
2023/01/25 04:31:38;;;;;;;88.80;27.23;;;0.20;99.90;;;;;;493996;241;29004;-73
2023/01/25 04:33:39;;;;;;;80.03;27.77;;;0.20;99.90;;;;;;494010;241;28002;-73
2023/01/25 04:35:40;;;;;;;73.00;26.65;;;0.20;99.90;;;;;;493998;241;27978;-73
2023/01/25 04:37:41;;;;;;;80.20;28.65;;;0.10;99.90;;;;;;493989;241;27476;-73
2023/01/25 04:39:43;;;;;;;79.43;26.35;;;0.10;99.90;;;;;;494003;241;27517;-73
2023/01/25 04:41:44;;;;;;;76.68;27.87;;;0.20;99.90;;;;;;493999;241;27906;-73
2023/01/25 04:43:45;;;;;;;91.53;27.37;;;0.10;99.90;;;;;;494001;241;27481;-73
2023/01/25 04:45:46;;;;;;;67.20;26.45;;;0.20;99.90;;;;;;493996;241;27516;-73
2023/01/25 04:47:48;;;;;;;75.28;27.85;;;0.20;99.90;;;;;;494009;241;28000;-73
2023/01/25 04:49:49;;;;;;;48.72;22.65;;;0.20;99.90;;;;;;494006;241;27957;-72
2023/01/25 04:51:50;;;;;;;100.78;29.73;;;0.20;99.90;;;;;;494023;241;27608;-73
2023/01/25 04:53:51;;;;;;;86.68;27.00;;;0.20;99.90;;;;;;494032;241;27485;-73
2023/01/25 04:55:53;;;;;;;82.28;28.27;;;0.20;99.90;;;;;;494022;241;27495;-73
2023/01/25 04:57:54;;;;;;;89.65;26.83;;;0.20;99.90;;;;;;494028;241;27456;-73
2023/01/25 04:59:55;;;;;;;96.85;26.60;;;0.10;99.90;;;;;;494024;241;27599;-73
2023/01/25 05:01:57;;;;;;;108.18;29.42;;;0.10;99.90;;;;;;494062;241;27502;-73
2023/01/25 05:03:58;;;;;;;76.57;26.33;;;0.10;99.90;;;;;;494030;241;27918;-73
2023/01/25 05:05:59;;;;;;;80.20;28.55;;;0.20;99.90;;;;;;494009;241;27514;-73
2023/01/25 05:08:00;;;;;;;69.37;24.83;;;0.10;99.90;;;;;;493961;241;27604;-73
2023/01/25 05:10:02;;;;;;;82.43;27.23;;;0.10;99.90;;;;;;493623;241;27494;-73
2023/01/25 05:12:10;;;;;;;62.20;25.25;;;0.10;99.90;;;;;;493483;241;27467;-72
2023/01/25 05:14:04;;;;;;;75.00;26.50;;;0.10;99.90;;;;;;493394;241;27540;-73
2023/01/25 05:16:05;;;;;;;51.13;24.73;;;0.10;99.90;;;;;;494043;241;27505;-73
2023/01/25 05:18:07;;;;;;;90.03;28.35;;;0.10;99.90;;;;;;494031;241;28812;-73
2023/01/25 05:20:08;;;;;;;76.18;27.70;;;0.00;99.90;;;;;;494045;241;27989;-73
2023/01/25 05:22:10;;;;;;;120.13;30.48;;;0.10;99.90;;;;;;493981;241;27603;-73
2023/01/25 05:24:10;;;;;;;112.43;29.55;;;0.10;99.90;;;;;;493971;241;27469;-73
2023/01/25 05:28:31;;;;;;;93.28;25.98;;;0.00;99.90;;;;;;494039;241;27629;-73
2023/01/25 05:30:33;;;;;;;87.88;26.95;;;0.10;99.90;;;;;;494008;241;27473;-73
2023/01/25 05:32:34;;;;;;;86.03;29.23;;;0.10;99.90;;;;;;494008;241;27568;-73
2023/01/25 05:34:35;;;;;;;79.82;27.65;;;0.10;99.90;;;;;;494024;241;27502;-73
2023/01/25 05:36:36;;;;;;;72.45;25.80;;;0.10;99.90;;;;;;494013;241;27546;-73
2023/01/25 05:38:38;;;;;;;82.20;26.73;;;0.00;99.90;;;;;;494014;241;27505;-73
2023/01/25 05:40:39;;;;;;;64.35;26.60;;;0.00;99.90;;;;;;494004;241;28036;-73
2023/01/25 05:42:40;;;;;;;64.82;25.00;;;0.00;99.90;;;;;;494002;241;29089;-73
2023/01/25 05:44:41;;;;;;;54.67;22.70;;;0.10;99.90;;;;;;494016;241;27604;-72
2023/01/25 05:46:43;;;;;;;77.22;27.15;;;0.10;99.90;;;;;;494029;241;27557;-73
2023/01/25 05:48:44;;;;;;;73.90;25.37;;;0.10;99.90;;;;;;494010;241;27508;-73
2023/01/25 05:50:45;;;;;;;75.55;26.10;;;0.10;99.90;;;;;;493977;241;27557;-73
2023/01/25 05:52:46;;;;;;;62.17;24.58;;;0.10;99.90;;;;;;493997;241;27508;-73
2023/01/25 05:54:48;;;;;;;59.55;23.10;;;0.10;99.90;;;;;;494015;241;28041;-72
2023/01/25 05:56:49;;;;;;;60.88;24.75;;;0.20;99.90;;;;;;494041;241;27985;-73
2023/01/25 05:58:50;;;;;;;79.68;27.23;;;0.10;99.90;;;;;;494002;241;27533;-73
2023/01/25 06:00:51;;;;;;;55.97;23.30;;;0.10;99.90;;;;;;494019;241;27463;-73
2023/01/25 06:02:54;;;;;;;53.28;22.83;;;0.10;99.90;;;;;;493994;241;27579;-73
2023/01/25 06:04:54;;;;;;;51.75;23.42;;;0.20;99.90;;;;;;493896;241;27494;-73
2023/01/25 06:06:55;;;;;;;75.05;25.02;;;0.20;99.90;;;;;;493994;239;27461;-73
2023/01/25 06:08:56;;;;;;;59.88;23.30;;;0.20;99.90;;;;;;494010;241;27552;-73
2023/01/25 06:10:58;;;;;;;61.67;23.17;;;0.10;99.90;;;;;;493915;241;28130;-73
2023/01/25 06:12:59;;;;;;;65.65;23.23;;;0.10;99.90;;;;;;493991;241;27983;-73
2023/01/25 06:15:00;;;;;;;51.83;20.62;;;0.10;99.90;;;;;;493988;241;27597;-73
2023/01/25 06:17:01;;;;;;;50.00;21.83;;;0.10;99.90;;;;;;493998;241;27540;-73
2023/01/25 06:19:03;;;;;;;55.70;23.62;;;0.20;99.90;;;;;;493997;241;27502;-73
2023/01/25 06:21:04;;;;;;;38.17;19.73;;;0.20;99.90;;;;;;493997;241;27454;-73
2023/01/25 06:23:05;;;;;;;37.83;20.58;;;0.30;99.90;;;;;;494003;241;27508;-73
2023/01/25 06:25:06;;;;;;;58.25;22.98;;;0.20;99.90;;;;;;494010;241;27584;-73
2023/01/25 06:27:08;;;;;;;81.47;24.15;;;0.20;99.90;;;;;;493985;241;27949;-73
2023/01/25 06:29:09;;;;;;;61.25;23.20;;;0.20;99.90;;;;;;494005;241;28044;-73
2023/01/25 06:31:10;;;;;;;72.55;24.35;;;0.20;99.90;;;;;;493995;241;27533;-73
2023/01/25 06:33:11;;;;;;;58.70;23.48;;;0.20;99.90;;;;;;494026;241;27573;-73
2023/01/25 06:35:13;;;;;;;59.80;20.95;;;0.20;99.90;;;;;;493983;241;27538;-72
2023/01/25 06:37:14;;;;;;;53.90;20.90;;;0.20;99.90;;;;;;494004;241;27498;-73
2023/01/25 06:39:15;;;;;;;51.00;21.33;;;0.20;99.90;;;;;;494016;241;27569;-72
2023/01/25 06:41:17;;;;;;;65.55;23.98;;;0.20;99.90;;;;;;494013;241;28140;-73
2023/01/25 06:43:18;;;;;;;67.82;23.23;;;0.10;99.90;;;;;;494007;241;27976;-73
2023/01/25 06:45:19;;;;;;;54.00;20.62;;;0.20;99.90;;;;;;494034;241;29196;-72
2023/01/25 06:47:20;;;;;;;46.90;20.37;;;0.20;99.90;;;;;;494045;241;27471;-73
2023/01/25 06:49:22;;;;;;;61.97;22.65;;;0.20;99.90;;;;;;493979;241;27593;-73
2023/01/25 06:51:23;;;;;;;45.35;20.05;;;0.20;99.90;;;;;;494005;241;27857;-72
2023/01/25 06:53:24;;;;;;;53.38;21.80;;;0.20;99.90;;;;;;494039;241;27470;-73
2023/01/25 06:55:25;;;;;;;63.90;21.90;;;0.20;99.90;;;;;;494027;241;27498;-73
2023/01/25 06:57:28;;;;;;;50.12;20.80;;;0.20;99.90;;;;;;494004;241;27914;-72
2023/01/25 06:59:28;;;;;;;62.10;21.40;;;0.10;99.90;;;;;;493902;239;27977;-73
2023/01/25 07:01:29;;;;;;;51.37;19.37;;;0.10;99.90;;;;;;494029;237;27540;-73
2023/01/25 07:03:30;;;;;;;51.80;19.25;;;0.10;99.90;;;;;;494007;241;27489;-73
2023/01/25 07:05:32;;;;;;;35.47;16.33;;;0.10;99.90;;;;;;493905;241;27589;-73
2023/01/25 07:07:33;;;;;;;53.22;22.02;;;0.10;99.90;;;;;;494008;241;27558;-73
2023/01/25 07:09:34;;;;;;;45.75;19.62;;;0.10;99.90;;;;;;493997;241;27620;-73
2023/01/25 07:11:35;;;;;;;39.50;18.70;;;0.20;99.90;;;;;;494012;241;27624;-74
2023/01/25 07:13:37;;;;;;;36.03;16.75;;;0.20;99.90;;;;;;494029;241;27909;-73
2023/01/25 07:15:38;;;;;;;45.15;19.98;;;0.20;99.90;;;;;;494020;241;29160;-73
2023/01/25 07:17:39;;;;;;;35.90;17.87;;;0.20;99.90;;;;;;494025;241;27553;-73
2023/01/25 07:19:40;;;;;;;38.50;16.45;;;0.10;99.90;;;;;;493979;241;27528;-73
2023/01/25 07:21:42;;;;;;;47.47;18.80;;;0.20;99.90;;;;;;494023;241;27513;-72
2023/01/25 07:23:43;;;;;;;37.67;18.95;;;0.10;99.90;;;;;;493870;241;27581;-73
2023/01/25 07:25:44;;;;;;;32.78;16.12;;;0.20;99.90;;;;;;494015;241;27642;-74
2023/01/25 07:27:45;;;;;;;37.75;16.12;;;0.10;99.90;;;;;;494003;241;27456;-73
2023/01/25 07:29:47;;;;;;;35.88;17.05;;;0.10;99.90;;;;;;493980;241;27949;-73
2023/01/25 07:31:48;;;;;;;32.00;14.80;;;0.20;99.90;;;;;;494020;241;28067;-73
2023/01/25 07:33:49;;;;;;;33.45;15.90;;;0.20;99.90;;;;;;493985;241;27530;-72
2023/01/25 07:35:50;;;;;;;29.45;15.48;;;0.20;99.90;;;;;;493990;241;27516;-73
2023/01/25 07:37:52;;;;;;;30.95;15.60;;;0.20;99.90;;;;;;494004;241;27540;-73
2023/01/25 07:39:56;;;;;;;32.97;17.08;;;0.20;99.90;;;;;;494004;241;27501;-73
2023/01/25 07:41:54;;;;;;;33.15;15.77;;;0.20;99.90;;;;;;493742;241;27525;-73
2023/01/25 07:43:55;;;;;;;26.05;13.77;;;0.20;99.90;;;;;;493992;241;27949;-73
2023/01/25 07:45:57;;;;;;;22.50;12.95;;;0.30;99.90;;;;;;493983;241;27968;-73
2023/01/25 07:47:58;;;;;;;21.17;12.02;;;0.40;99.90;;;;;;494012;241;28013;-73
2023/01/25 07:49:59;;;;;;;17.00;9.98;;;0.30;99.90;;;;;;494016;241;27524;-73
2023/01/25 07:52:00;;;;;;;21.75;12.25;;;0.30;99.90;;;;;;494003;241;27521;-73
2023/01/25 07:54:02;;;;;;;20.60;10.45;;;0.30;99.90;;;;;;494012;241;27477;-73
2023/01/25 07:56:03;;;;;;;16.33;10.10;;;0.30;99.90;;;;;;493853;241;27505;-73
2023/01/25 07:58:04;;;;;;;23.83;12.57;;;0.40;99.90;;;;;;494026;241;27467;-72
2023/01/25 08:00:06;;;;;;;18.00;10.13;;;0.30;99.90;;;;;;493901;241;28051;-73
2023/01/25 08:02:07;;;;;;;18.85;10.98;;;0.30;99.90;;;;;;494005;241;27980;-73
2023/01/25 08:04:08;;;;;;;26.12;11.15;;;0.20;99.90;;;;;;494006;241;27492;-73
2023/01/25 08:06:09;;;;;;;23.92;11.40;;;0.20;99.90;;;;;;494030;241;27612;-73
2023/01/25 08:08:11;;;;;;;15.85;10.90;;;0.30;99.90;;;;;;493971;241;27466;-73
2023/01/25 08:10:12;;;;;;;16.95;9.77;;;0.30;99.90;;;;;;493984;241;27500;-73
2023/01/25 08:12:13;;;;;;;17.42;9.20;;;0.40;99.90;;;;;;494006;241;27519;-73
2023/01/25 08:14:14;;;;;;;14.82;9.30;;;0.40;99.90;;;;;;493977;241;27552;-73
2023/01/25 08:16:16;;;;;;;14.98;10.00;;;0.40;99.90;;;;;;494002;241;27584;-73
2023/01/25 08:18:17;;;;;;;17.98;10.52;;;0.50;99.90;;;;;;494014;241;27917;-73
2023/01/25 08:20:18;;;;;;;14.57;9.77;;;0.50;99.90;;;;;;494018;241;27937;-73
2023/01/25 08:22:19;;;;;;;23.02;11.82;;;0.50;99.90;;;;;;494037;241;27513;-73
2023/01/25 08:24:21;;;;;;;14.80;10.50;;;0.40;99.90;;;;;;494053;241;27497;-73
2023/01/25 08:26:22;;;;;;;13.23;9.38;;;0.40;99.90;;;;;;494007;241;27506;-73
2023/01/25 08:28:23;;;;;;;18.25;10.95;;;0.30;99.90;;;;;;494057;241;27487;-73
2023/01/25 08:30:24;;;;;;;16.40;10.15;;;0.40;99.90;;;;;;494039;241;27494;-73
2023/01/25 08:32:26;;;;;;;17.65;10.80;;;0.40;99.90;;;;;;494018;241;27614;-73
2023/01/25 08:34:30;;;;;;;18.55;11.80;;;0.50;99.90;;;;;;494028;241;27926;-73
2023/01/25 08:36:28;;;;;;;18.42;9.85;;;0.40;99.90;;;;;;493821;241;27976;-73
2023/01/25 08:38:29;;;;;;;15.55;9.80;;;0.40;99.90;;;;;;494014;241;27510;-73
2023/01/25 08:40:31;;;;;;;19.95;10.10;;;0.30;99.90;;;;;;493995;241;27516;-73
2023/01/25 08:42:32;;;;;;;13.85;9.65;;;0.20;99.90;;;;;;494021;241;27580;-73
2023/01/25 08:44:33;;;;;;;19.20;10.80;;;0.20;99.90;;;;;;494034;241;27453;-73
2023/01/25 08:46:34;;;;;;;14.38;9.50;;;0.30;99.90;;;;;;494018;241;27588;-73
2023/01/25 08:48:36;;;;;;;17.67;10.75;;;0.30;99.90;;;;;;494033;241;27480;-73
2023/01/25 08:50:37;;;;;;;16.75;10.20;;;0.30;99.90;;;;;;494001;241;27497;-73
2023/01/25 08:52:38;;;;;;;18.10;10.82;;;0.30;99.90;;;;;;494008;241;27990;-73
2023/01/25 08:54:42;;;;;;;16.23;10.05;;;0.30;99.90;;;;;;494029;241;28090;-73
2023/01/25 08:56:41;;;;;;;19.37;10.55;;;0.30;99.90;;;;;;493765;241;27521;-73
2023/01/25 08:58:42;;;;;;;15.55;10.20;;;0.30;99.90;;;;;;494015;241;27478;-72
2023/01/25 09:00:43;;;;;;;15.82;9.80;;;0.30;99.90;;;;;;494002;241;27473;-73
2023/01/25 09:02:44;;;;;;;17.62;9.85;;;0.20;99.90;;;;;;494013;241;27520;-73
2023/01/25 09:04:46;;;;;;;18.42;10.65;;;0.20;99.90;;;;;;494000;241;27470;-73
2023/01/25 09:06:47;;;;;;;17.35;10.35;;;0.20;99.90;;;;;;494015;241;27509;-73
2023/01/25 09:08:48;;;;;;;18.12;9.73;;;0.30;99.90;;;;;;494018;241;28776;-73
2023/01/25 09:10:49;;;;;;;14.60;9.35;;;0.30;99.90;;;;;;494034;241;28004;-72
2023/01/25 09:12:51;;;;;;;14.87;9.15;;;0.30;99.90;;;;;;494025;241;27515;-73
2023/01/25 09:14:52;;;;;;;17.40;10.20;;;0.30;99.90;;;;;;494027;241;27577;-73
2023/01/25 09:16:53;;;;;;;17.75;10.00;;;0.20;99.90;;;;;;494008;241;27616;-73
2023/01/25 09:18:54;;;;;;;25.85;12.57;;;0.10;99.90;;;;;;494045;241;27550;-73
2023/01/25 09:20:56;;;;;;;19.02;10.90;;;0.20;99.90;;;;;;494026;241;27477;-73
2023/01/25 09:22:57;;;;;;;17.87;10.73;;;0.20;99.90;;;;;;494044;241;27506;-73
2023/01/25 09:24:58;;;;;;;17.87;9.07;;;0.10;99.90;;;;;;494006;241;28027;-73
2023/01/25 09:26:59;;;;;;;18.42;10.13;;;0.00;99.90;;;;;;494044;241;28000;-73
2023/01/25 09:29:01;;;;;;;18.98;10.63;;;0.10;99.90;;;;;;491211;241;47726;-72
2023/01/25 09:31:02;;;;;;;19.12;10.95;;;0.10;99.90;;;;;;493886;241;27587;-73
2023/01/25 09:33:03;;;;;;;16.00;9.57;;;0.20;99.90;;;;;;493947;241;27531;-73
2023/01/25 09:35:05;;;;;;;15.30;9.65;;;0.40;99.90;;;;;;494029;241;27472;-73
2023/01/25 09:37:06;;;;;;;22.23;9.88;;;0.40;99.90;;;;;;494029;241;27529;-73
2023/01/25 09:39:07;;;;;;;17.62;10.32;;;0.50;99.90;;;;;;494019;241;27602;-73
2023/01/25 09:41:08;;;;;;;16.83;10.82;;;0.40;99.90;;;;;;494019;241;27478;-73
2023/01/25 09:43:10;;;;;;;20.02;11.48;;;0.40;99.90;;;;;;494019;241;28095;-73
2023/01/25 09:45:11;;;;;;;21.08;11.77;;;0.50;99.90;;;;;;494031;241;28054;-73
2023/01/25 09:47:12;;;;;;;19.05;10.48;;;0.50;99.90;;;;;;494035;241;27616;-73
2023/01/25 09:49:14;;;;;;;18.48;9.75;;;0.50;99.90;;;;;;494031;241;27532;-73
2023/01/25 09:51:15;;;;;;;15.25;9.77;;;0.40;99.90;;;;;;494058;241;27462;-72
2023/01/25 09:53:16;;;;;;;17.83;10.50;;;0.30;99.90;;;;;;494058;241;27513;-73
2023/01/25 09:55:17;;;;;;;19.85;10.68;;;0.10;99.90;;;;;;494013;241;27493;-73
2023/01/25 09:57:18;;;;;;;15.95;9.15;;;0.00;99.90;;;;;;494032;241;27512;-73
2023/01/25 09:59:20;;;;;;;14.57;9.65;;;0.10;99.90;;;;;;494013;237;28050;-73
2023/01/25 10:01:21;;;;;;;18.48;11.60;;;0.20;99.90;;;;;;494054;241;27948;-73
2023/01/25 10:03:22;;;;;;;16.62;9.82;;;0.20;99.90;;;;;;494023;241;29051;-73
2023/01/25 10:05:23;;;;;;;27.25;10.93;;;0.40;99.90;;;;;;493989;241;27461;-73
2023/01/25 10:07:25;;;;;;;15.23;9.60;;;0.50;99.90;;;;;;494008;241;27501;-73
2023/01/25 10:09:26;;;;;;;16.17;10.75;;;0.50;99.90;;;;;;493992;241;27691;-73
2023/01/25 10:11:27;;;;;;;16.40;10.10;;;0.60;99.90;;;;;;494015;241;27458;-73
2023/01/25 10:13:30;;;;;;;15.75;9.93;;;0.50;99.90;;;;;;494001;241;27610;-73
2023/01/25 10:15:31;;;;;;;16.50;9.70;;;0.50;99.90;;;;;;493868;241;27510;-72
2023/01/25 10:17:31;;;;;;;18.62;9.55;;;0.30;99.90;;;;;;493838;241;27961;-72
2023/01/25 10:19:32;;;;;;;21.30;10.38;;;0.30;99.90;;;;;;493927;241;28012;-73
2023/01/25 10:21:33;;;;;;;15.32;10.00;;;0.30;99.90;;;;;;494009;241;27579;-73
2023/01/25 10:23:35;;;;;;;16.55;10.13;;;0.20;99.90;;;;;;493992;241;27534;-73
2023/01/25 10:25:36;;;;;;;15.55;9.52;;;0.30;99.90;;;;;;493972;241;27534;-73
2023/01/25 10:27:37;;;;;;;16.95;10.70;;;0.20;99.90;;;;;;493966;241;27581;-73
2023/01/25 10:29:38;;;;;;;15.60;10.10;;;0.00;99.90;;;;;;493963;241;28116;-73
2023/01/25 10:31:40;;;;;;;28.20;10.70;;;0.10;99.90;;;;;;493999;241;27531;-74
2023/01/25 10:33:41;;;;;;;14.13;9.18;;;0.20;99.90;;;;;;493998;241;27986;-73
2023/01/25 10:35:42;;;;;;;18.30;10.85;;;0.20;99.90;;;;;;494013;241;27977;-73
2023/01/25 10:37:43;;;;;;;19.25;11.23;;;0.30;99.90;;;;;;493994;241;29213;-73
2023/01/25 10:39:45;;;;;;;17.12;11.15;;;0.40;99.90;;;;;;494006;241;27639;-73
2023/01/25 10:41:46;;;;;;;23.75;11.98;;;0.50;99.90;;;;;;494010;241;27462;-73
2023/01/25 10:44:20;;;;;;;18.77;10.90;;;0.40;99.90;;;;;;493977;241;27545;-73
2023/01/25 10:45:49;;;;;;;18.23;11.32;;;0.30;99.90;;;;;;492202;241;27460;-73